Time;durP1;ratioP1;P1;durP2;ratioP2;P2;SDS_P1;SDS_P2;PMS_P1;PMS_P2;Temp;Humidity;BMP_temperature;BMP_pressure;BME280_temperature;BME280_humidity;BME280_pressure;Samples;Min_cycle;Max_cycle;Signal;HPM_P1;HPM_P2
2023/09/19 00:00:37;;;;;;;;;;;;;;;;;;5084241;28;20006;-59
2023/09/19 00:03:03;;;;;;;;;;;;;;;;;;5089768;28;20007;-59
2023/09/19 00:05:29;;;;;;;;;;;;;;;;;;5086394;28;19912;-60
2023/09/19 00:07:55;;;;;;;;;;;;;;;;;;5086745;28;20048;-59
2023/09/19 00:10:21;;;;;;;;;;;;;;;;;;5091263;28;19963;-60
2023/09/19 00:12:47;;;;;;;;;;;;;;;;;;5083683;28;19923;-59
2023/09/19 00:15:17;;;;;;;;;;;;;;;;;;5090790;28;20314;-59
2023/09/19 00:17:43;;;;;;;;;;;;;;;;;;5088392;28;19928;-59
2023/09/19 00:20:12;;;;;;;;;;;;;;;;;;5088222;28;19913;-60
2023/09/19 00:22:38;;;;;;;;;;;;;;;;;;5077736;28;19923;-60
2023/09/19 00:25:05;;;;;;;;;;;;;;;;;;5087920;28;19967;-60
2023/09/19 00:27:33;;;;;;;;;;;;;;;;;;5081442;28;19964;-60
2023/09/19 00:30:00;;;;;;;;;;;;;;;;;;5081442;28;19912;-60
2023/09/19 00:32:31;;;;;;;;;;;;;;;;;;5087727;28;20027;-60
2023/09/19 00:34:57;;;;;;;;;;;;;;;;;;5079451;28;19921;-60
2023/09/19 00:37:24;;;;;;;;;;;;;;;;;;5083867;28;19926;-61
2023/09/19 00:39:49;;;;;;;;;;;;;;;;;;5075196;28;19920;-60
2023/09/19 00:42:15;;;;;;;;;;;;;;;;;;5081191;28;19948;-60
2023/09/19 00:44:41;;;;;;;;;;;;;;;;;;5073978;28;20400;-60
2023/09/19 00:47:09;;;;;;;;;;;;;;;;;;5086718;28;19922;-61
2023/09/19 00:49:35;;;;;;;;;;;;;;;;;;5090540;28;20048;-61
2023/09/19 00:52:01;;;;;;;;;;;;;;;;;;5079932;28;19912;-60
2023/09/19 00:54:29;;;;;;;;;;;;;;;;;;5086574;28;19955;-60
2023/09/19 00:56:55;;;;;;;;;;;;;;;;;;5081559;28;19927;-61
2023/09/19 00:59:22;;;;;;;;;;;;;;;;;;5083598;28;19920;-60
2023/09/19 01:01:52;;;;;;;;;;;;;;;;;;5083073;28;19922;-58
2023/09/19 01:04:18;;;;;;;;;;;;;;;;;;5079077;28;20560;-56
2023/09/19 01:06:45;;;;;;;;;;;;;;;;;;5077219;28;19912;-56
2023/09/19 01:09:11;;;;;;;;;;;;;;;;;;5077148;28;19912;-57
2023/09/19 01:11:39;;;;;;;;;;;;;;;;;;5084048;28;20011;-58
2023/09/19 01:14:07;;;;;;;;;;;;;;;;;;5093535;28;19908;-57
2023/09/19 01:16:35;;;;;;;;;;;;;;;;;;5074621;28;19920;-57
2023/09/19 01:19:02;;;;;;;;;;;;;;;;;;5072709;28;19951;-57
2023/09/19 01:21:28;;;;;;;;;;;;;;;;;;5086072;28;19965;-56
2023/09/19 01:23:54;;;;;;;;;;;;;;;;;;5071801;28;19921;-57
2023/09/19 01:26:20;;;;;;;;;;;;;;;;;;5081586;28;20007;-57
2023/09/19 01:28:47;;;;;;;;;;;;;;;;;;5073022;28;19952;-57
2023/09/19 01:31:13;;;;;;;;;;;;;;;;;;5072309;28;19916;-58
2023/09/19 01:33:39;;;;;;;;;;;;;;;;;;5082937;28;19916;-57
2023/09/19 01:36:05;;;;;;;;;;;;;;;;;;5077189;28;19922;-57
2023/09/19 01:38:32;;;;;;;;;;;;;;;;;;5076390;28;19920;-57
2023/09/19 01:40:59;;;;;;;;;;;;;;;;;;5085322;28;19916;-57
2023/09/19 01:43:25;;;;;;;;;;;;;;;;;;5079291;28;19923;-57
2023/09/19 01:45:51;;;;;;;;;;;;;;;;;;5073963;28;19956;-57
2023/09/19 01:48:18;;;;;;;;;;;;;;;;;;5080005;28;19935;-57
2023/09/19 01:50:44;;;;;;;;;;;;;;;;;;5073049;28;19956;-56
2023/09/19 01:53:10;;;;;;;;;;;;;;;;;;5072054;28;19947;-57
2023/09/19 01:55:36;;;;;;;;;;;;;;;;;;5077358;28;20466;-58
2023/09/19 01:58:04;;;;;;;;;;;;;;;;;;5075018;28;19916;-57
2023/09/19 02:00:30;;;;;;;;;;;;;;;;;;5072596;28;19913;-57
2023/09/19 02:02:58;;;;;;;;;;;;;;;;;;5072433;28;20388;-58
2023/09/19 02:05:24;;;;;;;;;;;;;;;;;;5072487;28;20356;-56
2023/09/19 02:07:50;;;;;;;;;;;;;;;;;;5072444;28;20015;-57
2023/09/19 02:10:16;;;;;;;;;;;;;;;;;;5075080;28;19972;-58
2023/09/19 02:12:42;;;;;;;;;;;;;;;;;;5082682;28;19965;-60
2023/09/19 02:15:09;;;;;;;;;;;;;;;;;;5084068;28;19921;-60
2023/09/19 02:17:35;;;;;;;;;;;;;;;;;;5072415;28;20424;-60
2023/09/19 02:20:01;;;;;;;;;;;;;;;;;;5071823;28;19912;-60
2023/09/19 02:22:27;;;;;;;;;;;;;;;;;;5073529;28;19917;-60
2023/09/19 02:24:53;;;;;;;;;;;;;;;;;;5072799;28;19915;-58
2023/09/19 02:27:19;;;;;;;;;;;;;;;;;;5085617;28;20005;-60
2023/09/19 02:29:45;;;;;;;;;;;;;;;;;;5074522;28;19959;-60
2023/09/19 02:32:11;;;;;;;;;;;;;;;;;;5075400;28;19942;-60
2023/09/19 02:34:39;;;;;;;;;;;;;;;;;;5072827;28;19912;-60
2023/09/19 02:37:05;;;;;;;;;;;;;;;;;;5071876;28;19969;-61
2023/09/19 02:39:30;;;;;;;;;;;;;;;;;;5071704;28;19917;-60
2023/09/19 02:41:56;;;;;;;;;;;;;;;;;;5079336;28;19971;-60
2023/09/19 02:44:23;;;;;;;;;;;;;;;;;;5072144;28;20003;-58
2023/09/19 02:46:49;;;;;;;;;;;;;;;;;;5072231;28;19916;-60
2023/09/19 02:49:15;;;;;;;;;;;;;;;;;;5085730;28;20801;-60
2023/09/19 02:51:41;;;;;;;;;;;;;;;;;;5086513;28;19912;-60
2023/09/19 02:54:07;;;;;;;;;;;;;;;;;;5072125;28;19908;-60
2023/09/19 02:56:33;;;;;;;;;;;;;;;;;;5077999;28;19916;-60
2023/09/19 02:59:00;;;;;;;;;;;;;;;;;;5083601;28;19963;-60
2023/09/19 03:01:27;;;;;;;;;;;;;;;;;;5082390;28;19935;-60
2023/09/19 03:03:53;;;;;;;;;;;;;;;;;;5080766;28;19913;-60
2023/09/19 03:06:20;;;;;;;;;;;;;;;;;;5079700;28;19943;-60
2023/09/19 03:08:46;;;;;;;;;;;;;;;;;;5087096;28;19912;-60
2023/09/19 03:11:14;;;;;;;;;;;;;;;;;;5086731;28;19912;-60
2023/09/19 03:13:41;;;;;;;;;;;;;;;;;;5090271;28;19927;-60
2023/09/19 03:16:07;;;;;;;;;;;;;;;;;;5075923;28;19912;-60
2023/09/19 03:18:33;;;;;;;;;;;;;;;;;;5077509;28;19920;-60
2023/09/19 03:21:02;;;;;;;;;;;;;;;;;;5089926;28;19944;-59
2023/09/19 03:23:28;;;;;;;;;;;;;;;;;;5094607;28;20006;-59
2023/09/19 03:25:54;;;;;;;;;;;;;;;;;;5081963;28;19968;-59
2023/09/19 03:28:21;;;;;;;;;;;;;;;;;;5082597;28;19916;-59
2023/09/19 03:30:47;;;;;;;;;;;;;;;;;;5084950;28;20015;-59
2023/09/19 03:33:13;;;;;;;;;;;;;;;;;;5077472;28;19987;-59
2023/09/19 03:35:39;;;;;;;;;;;;;;;;;;5074933;28;20372;-58
2023/09/19 03:38:05;;;;;;;;;;;;;;;;;;5075142;28;19927;-58
2023/09/19 03:40:31;;;;;;;;;;;;;;;;;;5078185;28;20003;-59
2023/09/19 03:42:57;;;;;;;;;;;;;;;;;;5073896;28;19913;-59
2023/09/19 03:45:23;;;;;;;;;;;;;;;;;;5090483;28;19958;-58
2023/09/19 03:47:49;;;;;;;;;;;;;;;;;;5093754;28;19952;-58
2023/09/19 03:50:17;;;;;;;;;;;;;;;;;;5075176;28;19957;-59
2023/09/19 03:52:43;;;;;;;;;;;;;;;;;;5075069;28;19917;-59
2023/09/19 03:55:09;;;;;;;;;;;;;;;;;;5074850;28;20006;-58
2023/09/19 03:57:36;;;;;;;;;;;;;;;;;;5074566;28;19916;-59
2023/09/19 04:00:02;;;;;;;;;;;;;;;;;;5073554;28;19913;-59
2023/09/19 04:02:32;;;;;;;;;;;;;;;;;;5083594;28;19920;-59
2023/09/19 04:04:58;;;;;;;;;;;;;;;;;;5081726;28;19909;-59
2023/09/19 04:07:28;;;;;;;;;;;;;;;;;;5082291;28;19911;-59
2023/09/19 04:09:54;;;;;;;;;;;;;;;;;;5080530;28;20396;-59
2023/09/19 04:12:21;;;;;;;;;;;;;;;;;;5084563;28;19908;-59
2023/09/19 04:14:47;;;;;;;;;;;;;;;;;;5083161;28;20292;-59
2023/09/19 04:17:13;;;;;;;;;;;;;;;;;;5080160;28;19912;-59
2023/09/19 04:19:39;;;;;;;;;;;;;;;;;;5081768;28;20291;-59
2023/09/19 04:22:04;;;;;;;;;;;;;;;;;;5082009;28;19954;-58
2023/09/19 04:24:32;;;;;;;;;;;;;;;;;;5091861;28;19916;-59
2023/09/19 04:26:59;;;;;;;;;;;;;;;;;;5080941;28;20371;-59
2023/09/19 04:29:26;;;;;;;;;;;;;;;;;;5086896;28;19959;-59
2023/09/19 04:31:52;;;;;;;;;;;;;;;;;;5082097;28;19916;-57
2023/09/19 04:34:18;;;;;;;;;;;;;;;;;;5078506;28;19926;-59
2023/09/19 04:36:44;;;;;;;;;;;;;;;;;;5081879;28;20269;-56
2023/09/19 04:39:12;;;;;;;;;;;;;;;;;;5086767;28;19955;-56
2023/09/19 04:41:40;;;;;;;;;;;;;;;;;;5078845;28;19916;-57
2023/09/19 04:44:07;;;;;;;;;;;;;;;;;;5079446;28;19920;-58
2023/09/19 04:46:33;;;;;;;;;;;;;;;;;;5084899;28;19912;-56
2023/09/19 04:48:59;;;;;;;;;;;;;;;;;;5085928;28;20362;-59
2023/09/19 04:51:26;;;;;;;;;;;;;;;;;;5075688;28;19974;-57
2023/09/19 04:53:52;;;;;;;;;;;;;;;;;;5080722;28;19934;-56
2023/09/19 04:56:19;;;;;;;;;;;;;;;;;;5078691;28;20333;-57
2023/09/19 04:58:45;;;;;;;;;;;;;;;;;;5074235;28;20053;-56
2023/09/19 05:01:12;;;;;;;;;;;;;;;;;;5077278;28;20029;-57
2023/09/19 05:03:38;;;;;;;;;;;;;;;;;;5073605;28;19998;-57
2023/09/19 05:06:05;;;;;;;;;;;;;;;;;;5081393;28;20376;-57
2023/09/19 05:08:31;;;;;;;;;;;;;;;;;;5085075;28;19923;-56
2023/09/19 05:10:56;;;;;;;;;;;;;;;;;;5074702;28;19943;-58
2023/09/19 05:13:27;;;;;;;;;;;;;;;;;;5077823;28;20251;-57
2023/09/19 05:15:53;;;;;;;;;;;;;;;;;;5076142;28;19916;-56
2023/09/19 05:18:19;;;;;;;;;;;;;;;;;;5078637;28;19982;-57
2023/09/19 05:20:45;;;;;;;;;;;;;;;;;;5076184;28;19923;-57
2023/09/19 05:23:14;;;;;;;;;;;;;;;;;;5087966;28;20356;-57
2023/09/19 05:25:40;;;;;;;;;;;;;;;;;;5074792;28;19909;-57
2023/09/19 05:28:05;;;;;;;;;;;;;;;;;;5074904;28;19959;-57
2023/09/19 05:30:31;;;;;;;;;;;;;;;;;;5073135;28;19959;-56
2023/09/19 05:32:57;;;;;;;;;;;;;;;;;;5082093;28;20428;-57
2023/09/19 05:35:23;;;;;;;;;;;;;;;;;;5074173;28;19943;-57
2023/09/19 05:37:50;;;;;;;;;;;;;;;;;;5087841;28;20384;-57
2023/09/19 05:40:16;;;;;;;;;;;;;;;;;;5089318;28;19999;-58
2023/09/19 05:42:43;;;;;;;;;;;;;;;;;;5082335;28;19978;-57
2023/09/19 05:45:12;;;;;;;;;;;;;;;;;;5076032;28;19978;-57
2023/09/19 05:47:38;;;;;;;;;;;;;;;;;;5082032;28;19951;-57
2023/09/19 05:50:05;;;;;;;;;;;;;;;;;;5081421;28;20050;-56
2023/09/19 05:52:31;;;;;;;;;;;;;;;;;;5079063;28;19916;-57
2023/09/19 05:54:57;;;;;;;;;;;;;;;;;;5079527;28;19920;-56
2023/09/19 05:57:24;;;;;;;;;;;;;;;;;;5077823;28;19916;-58
2023/09/19 05:59:50;;;;;;;;;;;;;;;;;;5083278;28;19943;-57
2023/09/19 06:02:16;;;;;;;;;;;;;;;;;;5077948;28;20444;-57
2023/09/19 06:04:42;;;;;;;;;;;;;;;;;;5081735;28;19947;-59
2023/09/19 06:07:08;;;;;;;;;;;;;;;;;;5086148;28;19995;-57
2023/09/19 06:09:34;;;;;;;;;;;;;;;;;;5083736;28;20036;-57
2023/09/19 06:12:04;;;;;;;;;;;;;;;;;;5090025;28;19908;-56
2023/09/19 06:14:30;;;;;;;;;;;;;;;;;;5088176;28;19908;-57
2023/09/19 06:16:56;;;;;;;;;;;;;;;;;;5071764;28;19912;-57
2023/09/19 06:19:22;;;;;;;;;;;;;;;;;;5085542;28;19980;-59
2023/09/19 06:21:48;;;;;;;;;;;;;;;;;;5071182;28;20348;-57
2023/09/19 06:24:14;;;;;;;;;;;;;;;;;;5077719;28;19916;-57
2023/09/19 06:26:40;;;;;;;;;;;;;;;;;;5070834;28;19955;-57
2023/09/19 06:29:07;;;;;;;;;;;;;;;;;;5071490;28;20025;-57
2023/09/19 06:31:33;;;;;;;;;;;;;;;;;;5084773;28;19909;-57
2023/09/19 06:33:59;;;;;;;;;;;;;;;;;;5070733;28;20497;-56
2023/09/19 06:36:25;;;;;;;;;;;;;;;;;;5073125;28;20369;-58
2023/09/19 06:38:51;;;;;;;;;;;;;;;;;;5080391;28;19959;-57
2023/09/19 06:41:17;;;;;;;;;;;;;;;;;;5092349;28;19912;-57
2023/09/19 06:43:43;;;;;;;;;;;;;;;;;;5082032;28;19915;-57
2023/09/19 06:46:09;;;;;;;;;;;;;;;;;;5094609;28;19908;-57
2023/09/19 06:48:35;;;;;;;;;;;;;;;;;;5081522;28;19960;-58
2023/09/19 06:51:05;;;;;;;;;;;;;;;;;;5079730;28;19927;-58
2023/09/19 06:53:31;;;;;;;;;;;;;;;;;;5075551;28;19915;-58
2023/09/19 06:55:57;;;;;;;;;;;;;;;;;;5095483;28;19943;-59
2023/09/19 06:58:23;;;;;;;;;;;;;;;;;;5078454;28;20349;-59
2023/09/19 07:00:50;;;;;;;;;;;;;;;;;;5079306;28;19923;-59
2023/09/19 07:03:18;;;;;;;;;;;;;;;;;;5093874;28;20318;-59
2023/09/19 07:05:44;;;;;;;;;;;;;;;;;;5080043;28;20007;-59
2023/09/19 07:08:13;;;;;;;;;;;;;;;;;;5095220;28;20011;-59
2023/09/19 07:10:47;;;;;;;;;;;;;;;;;;5080719;28;20360;-59
2023/09/19 07:13:16;;;;;;;;;;;;;;;;;;5075440;28;19912;-59
2023/09/19 07:15:46;;;;;;;;;;;;;;;;;;5081933;28;19912;-59
2023/09/19 07:18:12;;;;;;;;;;;;;;;;;;5074969;28;20299;-59
2023/09/19 07:20:38;;;;;;;;;;;;;;;;;;5093790;28;20249;-59
2023/09/19 07:23:04;;;;;;;;;;;;;;;;;;5082841;28;19909;-59
2023/09/19 07:25:30;;;;;;;;;;;;;;;;;;5088085;28;20014;-58
2023/09/19 07:27:56;;;;;;;;;;;;;;;;;;5072943;28;20352;-59
2023/09/19 07:30:22;;;;;;;;;;;;;;;;;;5086126;28;20304;-59
2023/09/19 07:32:48;;;;;;;;;;;;;;;;;;5085601;28;19912;-59
2023/09/19 07:35:14;;;;;;;;;;;;;;;;;;5079050;28;20003;-59
2023/09/19 07:37:40;;;;;;;;;;;;;;;;;;5094446;28;20002;-59
2023/09/19 07:40:09;;;;;;;;;;;;;;;;;;5080268;28;20132;-59
2023/09/19 07:42:40;;;;;;;;;;;;;;;;;;5083150;28;20436;-59
2023/09/19 07:45:07;;;;;;;;;;;;;;;;;;5080436;28;19912;-58
2023/09/19 07:47:33;;;;;;;;;;;;;;;;;;5093563;28;19943;-60
2023/09/19 07:50:00;;;;;;;;;;;;;;;;;;5080289;28;19959;-59
2023/09/19 07:52:27;;;;;;;;;;;;;;;;;;5081880;28;19909;-59
2023/09/19 07:54:53;;;;;;;;;;;;;;;;;;5090121;28;20002;-59
2023/09/19 07:57:19;;;;;;;;;;;;;;;;;;5087453;28;20360;-59
2023/09/19 07:59:45;;;;;;;;;;;;;;;;;;5080106;28;19966;-61
2023/09/19 08:02:15;;;;;;;;;;;;;;;;;;5092537;28;20333;-58
2023/09/19 08:04:41;;;;;;;;;;;;;;;;;;5074818;28;19958;-57
2023/09/19 08:07:08;;;;;;;;;;;;;;;;;;5087401;28;19908;-58
2023/09/19 08:09:34;;;;;;;;;;;;;;;;;;5081894;28;20015;-59
2023/09/19 08:12:05;;;;;;;;;;;;;;;;;;5085413;28;20094;-57
2023/09/19 08:14:30;;;;;;;;;;;;;;;;;;5076709;28;19909;-58
2023/09/19 08:16:57;;;;;;;;;;;;;;;;;;5076024;28;19959;-57
2023/09/19 08:19:23;;;;;;;;;;;;;;;;;;5087038;28;19922;-58
2023/09/19 08:21:49;;;;;;;;;;;;;;;;;;5083808;28;19923;-58
2023/09/19 08:24:15;;;;;;;;;;;;;;;;;;5085244;28;19920;-57
2023/09/19 08:26:42;;;;;;;;;;;;;;;;;;5090899;28;19915;-59
2023/09/19 08:29:11;;;;;;;;;;;;;;;;;;5074786;28;19948;-57
2023/09/19 08:31:37;;;;;;;;;;;;;;;;;;5083663;28;19992;-58
2023/09/19 08:34:03;;;;;;;;;;;;;;;;;;5078759;28;19997;-58
2023/09/19 08:36:30;;;;;;;;;;;;;;;;;;5073952;28;20045;-58
2023/09/19 08:38:56;;;;;;;;;;;;;;;;;;5076166;28;20383;-59
2023/09/19 08:41:22;;;;;;;;;;;;;;;;;;5085879;28;19909;-58
2023/09/19 08:43:48;;;;;;;;;;;;;;;;;;5072860;28;20016;-59
2023/09/19 08:46:14;;;;;;;;;;;;;;;;;;5073165;28;19908;-58
2023/09/19 08:48:40;;;;;;;;;;;;;;;;;;5082748;28;20391;-57
2023/09/19 08:51:06;;;;;;;;;;;;;;;;;;5083234;28;19916;-58
2023/09/19 08:53:32;;;;;;;;;;;;;;;;;;5082864;28;20255;-58
2023/09/19 08:55:58;;;;;;;;;;;;;;;;;;5083055;28;19916;-58
2023/09/19 08:58:24;;;;;;;;;;;;;;;;;;5078030;28;19924;-59
2023/09/19 09:00:50;;;;;;;;;;;;;;;;;;5092699;28;19912;-58
2023/09/19 09:03:19;;;;;;;;;;;;;;;;;;5078557;28;19944;-58
2023/09/19 09:05:46;;;;;;;;;;;;;;;;;;5075016;28;19935;-57
2023/09/19 09:08:12;;;;;;;;;;;;;;;;;;5073799;28;20015;-57
2023/09/19 09:10:40;;;;;;;;;;;;;;;;;;5087909;28;20010;-59
2023/09/19 09:13:06;;;;;;;;;;;;;;;;;;5086565;28;19916;-60
2023/09/19 09:15:32;;;;;;;;;;;;;;;;;;5081155;28;19955;-60
2023/09/19 09:17:59;;;;;;;;;;;;;;;;;;5078879;28;20360;-59
2023/09/19 09:20:25;;;;;;;;;;;;;;;;;;5084132;28;19931;-59
2023/09/19 09:22:52;;;;;;;;;;;;;;;;;;5079611;28;19912;-60
2023/09/19 09:25:18;;;;;;;;;;;;;;;;;;5082872;28;19999;-59
2023/09/19 09:27:44;;;;;;;;;;;;;;;;;;5083718;28;19990;-59
2023/09/19 09:30:12;;;;;;;;;;;;;;;;;;5077624;28;20011;-60
2023/09/19 09:32:39;;;;;;;;;;;;;;;;;;5086073;28;20325;-58
2023/09/19 09:35:05;;;;;;;;;;;;;;;;;;5083604;28;19919;-60
2023/09/19 09:37:31;;;;;;;;;;;;;;;;;;5074191;28;19908;-60
2023/09/19 09:39:58;;;;;;;;;;;;;;;;;;5082437;28;19958;-60
2023/09/19 09:42:24;;;;;;;;;;;;;;;;;;5080702;28;19920;-59
2023/09/19 09:44:51;;;;;;;;;;;;;;;;;;5076578;28;19920;-59
2023/09/19 09:47:30;;;;;;;;;;;;;;;;;;5075774;28;19919;-60
2023/09/19 09:50:07;;;;;;;;;;;;;;;;;;5080699;28;19913;-60
2023/09/19 09:52:34;;;;;;;;;;;;;;;;;;5077658;28;20011;-60
2023/09/19 09:55:01;;;;;;;;;;;;;;;;;;5081765;28;20350;-60
2023/09/19 09:57:27;;;;;;;;;;;;;;;;;;5081619;28;20583;-59
2023/09/19 09:59:53;;;;;;;;;;;;;;;;;;5081093;28;19962;-59
2023/09/19 10:02:28;;;;;;;;;;;;;;;;;;5082170;28;19955;-60
2023/09/19 10:05:08;;;;;;;;;;;;;;;;;;5072179;28;19917;-59
2023/09/19 10:07:40;;;;;;;;;;;;;;;;;;5081804;28;20356;-59
2023/09/19 10:10:15;;;;;;;;;;;;;;;;;;5077840;28;19943;-58
2023/09/19 10:12:41;;;;;;;;;;;;;;;;;;5084281;28;19989;-60
2023/09/19 10:15:08;;;;;;;;;;;;;;;;;;5077035;28;20380;-60
2023/09/19 10:17:36;;;;;;;;;;;;;;;;;;5080900;28;19916;-60
2023/09/19 10:20:19;;;;;;;;;;;;;;;;;;5079158;28;19944;-58
2023/09/19 10:22:45;;;;;;;;;;;;;;;;;;5077165;28;20045;-62
2023/09/19 10:25:12;;;;;;;;;;;;;;;;;;5071543;28;19952;-62
2023/09/19 10:27:38;;;;;;;;;;;;;;;;;;5074798;28;19920;-62
2023/09/19 10:30:06;;;;;;;;;;;;;;;;;;5079857;28;20374;-62
2023/09/19 10:32:33;;;;;;;;;;;;;;;;;;5075768;28;19917;-61
2023/09/19 10:35:00;;;;;;;;;;;;;;;;;;5075051;28;20296;-60
2023/09/19 10:37:26;;;;;;;;;;;;;;;;;;5075753;28;19913;-61
2023/09/19 10:39:52;;;;;;;;;;;;;;;;;;5077069;28;20413;-61
2023/09/19 10:42:18;;;;;;;;;;;;;;;;;;5076750;28;19934;-61
2023/09/19 10:44:44;;;;;;;;;;;;;;;;;;5081473;28;20331;-62
2023/09/19 10:47:10;;;;;;;;;;;;;;;;;;5081553;28;19993;-61
2023/09/19 10:49:36;;;;;;;;;;;;;;;;;;5076044;28;19920;-62
2023/09/19 10:52:02;;;;;;;;;;;;;;;;;;5075343;28;19991;-61
2023/09/19 10:54:28;;;;;;;;;;;;;;;;;;5084334;28;20291;-62
2023/09/19 10:56:54;;;;;;;;;;;;;;;;;;5082599;28;19958;-61
2023/09/19 10:59:20;;;;;;;;;;;;;;;;;;5073970;28;20372;-61
2023/09/19 11:01:47;;;;;;;;;;;;;;;;;;5081015;28;20273;-61
2023/09/19 11:04:13;;;;;;;;;;;;;;;;;;5074104;28;19934;-61
2023/09/19 11:06:41;;;;;;;;;;;;;;;;;;5081137;28;20466;-60
2023/09/19 11:11:35;;;;;;;;;;;;;;;;;;5085845;28;20019;-61
2023/09/19 11:14:01;;;;;;;;;;;;;;;;;;5090871;28;20399;-62
2023/09/19 11:16:28;;;;;;;;;;;;;;;;;;5080188;28;20003;-62
2023/09/19 11:18:55;;;;;;;;;;;;;;;;;;5082894;28;19992;-62
2023/09/19 11:21:21;;;;;;;;;;;;;;;;;;5078508;28;19922;-62
2023/09/19 11:23:47;;;;;;;;;;;;;;;;;;5082975;28;19924;-62
2023/09/19 11:26:13;;;;;;;;;;;;;;;;;;5071989;28;20372;-61
2023/09/19 11:28:39;;;;;;;;;;;;;;;;;;5086929;28;20055;-62
2023/09/19 11:31:05;;;;;;;;;;;;;;;;;;5085161;28;19912;-60
2023/09/19 11:33:33;;;;;;;;;;;;;;;;;;5077253;28;19916;-60
2023/09/19 11:36:00;;;;;;;;;;;;;;;;;;5084814;28;19908;-60
2023/09/19 11:38:25;;;;;;;;;;;;;;;;;;5080465;28;19920;-61
2023/09/19 11:40:54;;;;;;;;;;;;;;;;;;5074988;28;19948;-60
2023/09/19 11:43:20;;;;;;;;;;;;;;;;;;5087713;28;20392;-60
2023/09/19 11:45:46;;;;;;;;;;;;;;;;;;5087196;28;19914;-60
2023/09/19 11:48:13;;;;;;;;;;;;;;;;;;5080639;28;20004;-61
2023/09/19 11:50:43;;;;;;;;;;;;;;;;;;5080499;28;20487;-60
2023/09/19 11:53:11;;;;;;;;;;;;;;;;;;5081265;28;19962;-60
2023/09/19 11:55:38;;;;;;;;;;;;;;;;;;5088924;28;19920;-60
2023/09/19 11:58:04;;;;;;;;;;;;;;;;;;5079925;28;19943;-60
2023/09/19 12:00:30;;;;;;;;;;;;;;;;;;5088826;28;19947;-60
2023/09/19 12:02:57;;;;;;;;;;;;;;;;;;5073521;28;19909;-61
2023/09/19 12:05:23;;;;;;;;;;;;;;;;;;5074363;28;20418;-60
2023/09/19 12:07:49;;;;;;;;;;;;;;;;;;5086017;28;20121;-61
2023/09/19 12:10:17;;;;;;;;;;;;;;;;;;5076718;28;19912;-60
2023/09/19 12:12:43;;;;;;;;;;;;;;;;;;5078903;28;19919;-61
2023/09/19 12:15:10;;;;;;;;;;;;;;;;;;5080112;28;19987;-60
2023/09/19 12:17:36;;;;;;;;;;;;;;;;;;5081568;28;20322;-61
2023/09/19 12:20:14;;;;;;;;;;;;;;;;;;5088264;28;19936;-61
2023/09/19 12:22:40;;;;;;;;;;;;;;;;;;5084420;28;19936;-60
2023/09/19 12:25:07;;;;;;;;;;;;;;;;;;5085332;28;20408;-60
2023/09/19 12:27:33;;;;;;;;;;;;;;;;;;5072903;28;20340;-61
2023/09/19 12:30:01;;;;;;;;;;;;;;;;;;5085169;28;19913;-58
2023/09/19 12:32:26;;;;;;;;;;;;;;;;;;5085100;28;20007;-60
2023/09/19 12:34:54;;;;;;;;;;;;;;;;;;5080157;28;20328;-59
2023/09/19 12:37:27;;;;;;;;;;;;;;;;;;5079865;28;19989;-57
2023/09/19 12:39:54;;;;;;;;;;;;;;;;;;5085615;28;19923;-60
2023/09/19 12:42:20;;;;;;;;;;;;;;;;;;5085900;28;19920;-56
2023/09/19 12:44:46;;;;;;;;;;;;;;;;;;5088013;28;19919;-56
2023/09/19 12:47:15;;;;;;;;;;;;;;;;;;5082248;28;19915;-56
2023/09/19 12:49:41;;;;;;;;;;;;;;;;;;5079260;28;19931;-59
2023/09/19 12:52:07;;;;;;;;;;;;;;;;;;5081518;28;19915;-58
2023/09/19 12:54:33;;;;;;;;;;;;;;;;;;5085163;28;19908;-61
2023/09/19 12:56:59;;;;;;;;;;;;;;;;;;5083172;28;19912;-58
2023/09/19 12:59:25;;;;;;;;;;;;;;;;;;5083074;28;20431;-58
2023/09/19 13:01:53;;;;;;;;;;;;;;;;;;5072780;28;20023;-60
2023/09/19 13:04:19;;;;;;;;;;;;;;;;;;5080996;28;20326;-58
2023/09/19 13:06:45;;;;;;;;;;;;;;;;;;5081389;28;19938;-60
2023/09/19 13:09:11;;;;;;;;;;;;;;;;;;5084852;28;20024;-59
2023/09/19 13:11:40;;;;;;;;;;;;;;;;;;5078375;28;19998;-58
2023/09/19 13:14:08;;;;;;;;;;;;;;;;;;5075774;28;20006;-58
2023/09/19 13:16:34;;;;;;;;;;;;;;;;;;5080990;28;20339;-58
2023/09/19 13:18:59;;;;;;;;;;;;;;;;;;5085906;28;20012;-58
2023/09/19 13:21:26;;;;;;;;;;;;;;;;;;5074562;28;19924;-58
2023/09/19 13:23:52;;;;;;;;;;;;;;;;;;5082951;28;19917;-60
2023/09/19 13:26:19;;;;;;;;;;;;;;;;;;5077097;28;20004;-59
2023/09/19 13:28:47;;;;;;;;;;;;;;;;;;5088530;28;19945;-60
2023/09/19 13:31:14;;;;;;;;;;;;;;;;;;5080933;28;20662;-58
2023/09/19 13:33:39;;;;;;;;;;;;;;;;;;5078140;28;20544;-58
2023/09/19 13:36:05;;;;;;;;;;;;;;;;;;5084822;28;19947;-58
2023/09/19 13:38:31;;;;;;;;;;;;;;;;;;5075412;28;19926;-58
2023/09/19 13:40:57;;;;;;;;;;;;;;;;;;5081129;28;20327;-59
2023/09/19 13:43:25;;;;;;;;;;;;;;;;;;5081891;28;19959;-59
2023/09/19 13:45:50;;;;;;;;;;;;;;;;;;5071622;28;19935;-58
2023/09/19 13:48:20;;;;;;;;;;;;;;;;;;5083527;28;20011;-59
2023/09/19 13:50:46;;;;;;;;;;;;;;;;;;5077509;28;19916;-62
2023/09/19 13:53:12;;;;;;;;;;;;;;;;;;5070571;28;19924;-63
2023/09/19 13:55:38;;;;;;;;;;;;;;;;;;5073692;28;20360;-62
2023/09/19 13:58:06;;;;;;;;;;;;;;;;;;5078290;28;19923;-61
2023/09/19 14:00:34;;;;;;;;;;;;;;;;;;5077189;28;19912;-62
2023/09/19 14:03:00;;;;;;;;;;;;;;;;;;5077914;28;19919;-62
2023/09/19 14:05:27;;;;;;;;;;;;;;;;;;5075224;28;19913;-62
2023/09/19 14:07:55;;;;;;;;;;;;;;;;;;5086126;28;19936;-61
2023/09/19 14:10:21;;;;;;;;;;;;;;;;;;5075762;28;20379;-63
2023/09/19 14:12:47;;;;;;;;;;;;;;;;;;5079879;28;19948;-62
2023/09/19 14:15:13;;;;;;;;;;;;;;;;;;5073138;28;19923;-63
2023/09/19 14:17:39;;;;;;;;;;;;;;;;;;5080524;28;20435;-62
2023/09/19 14:20:06;;;;;;;;;;;;;;;;;;5071829;28;20204;-60
2023/09/19 14:22:33;;;;;;;;;;;;;;;;;;5078951;28;19917;-62
2023/09/19 14:24:59;;;;;;;;;;;;;;;;;;5074721;28;19916;-62
2023/09/19 14:27:25;;;;;;;;;;;;;;;;;;5084319;28;19920;-62
2023/09/19 14:29:51;;;;;;;;;;;;;;;;;;5073402;28;20024;-62
2023/09/19 14:32:17;;;;;;;;;;;;;;;;;;5077901;28;20288;-62
2023/09/19 14:34:44;;;;;;;;;;;;;;;;;;5077357;28;19990;-63
2023/09/19 14:37:11;;;;;;;;;;;;;;;;;;5070829;28;19970;-63
2023/09/19 14:39:38;;;;;;;;;;;;;;;;;;5075712;28;19917;-62
2023/09/19 14:42:04;;;;;;;;;;;;;;;;;;5073961;28;19924;-63
2023/09/19 14:44:30;;;;;;;;;;;;;;;;;;5074031;28;19962;-62
2023/09/19 14:46:56;;;;;;;;;;;;;;;;;;5072701;28;20344;-62
2023/09/19 14:49:22;;;;;;;;;;;;;;;;;;5073904;28;19912;-62
2023/09/19 14:51:47;;;;;;;;;;;;;;;;;;5080345;28;19959;-61
2023/09/19 14:54:16;;;;;;;;;;;;;;;;;;5075641;28;19920;-63
2023/09/19 14:56:42;;;;;;;;;;;;;;;;;;5080543;28;19912;-61
2023/09/19 14:59:10;;;;;;;;;;;;;;;;;;5076654;28;20342;-62
2023/09/19 15:01:36;;;;;;;;;;;;;;;;;;5076593;28;19963;-58
2023/09/19 15:04:02;;;;;;;;;;;;;;;;;;5079994;28;19951;-58
2023/09/19 15:06:28;;;;;;;;;;;;;;;;;;5086917;28;19999;-62
2023/09/19 15:08:54;;;;;;;;;;;;;;;;;;5080161;28;19916;-59
2023/09/19 15:11:21;;;;;;;;;;;;;;;;;;5083902;28;20380;-65
2023/09/19 15:13:47;;;;;;;;;;;;;;;;;;5079961;28;20001;-59
2023/09/19 15:16:13;;;;;;;;;;;;;;;;;;5084566;28;19959;-60
2023/09/19 15:18:40;;;;;;;;;;;;;;;;;;5077070;28;19917;-58
2023/09/19 15:21:06;;;;;;;;;;;;;;;;;;5089007;28;19919;-58
2023/09/19 15:23:35;;;;;;;;;;;;;;;;;;5085527;28;19951;-59
2023/09/19 15:26:03;;;;;;;;;;;;;;;;;;5083382;28;19916;-58
2023/09/19 15:28:32;;;;;;;;;;;;;;;;;;5086584;28;21835;-58
2023/09/19 15:30:58;;;;;;;;;;;;;;;;;;5075525;28;19970;-61
2023/09/19 15:33:24;;;;;;;;;;;;;;;;;;5088759;28;20240;-59
2023/09/19 15:35:50;;;;;;;;;;;;;;;;;;5076919;28;19950;-60
2023/09/19 15:38:16;;;;;;;;;;;;;;;;;;5085965;28;19931;-59
2023/09/19 15:40:42;;;;;;;;;;;;;;;;;;5078094;28;20313;-58
2023/09/19 15:43:08;;;;;;;;;;;;;;;;;;5074080;28;19981;-58
2023/09/19 15:45:34;;;;;;;;;;;;;;;;;;5080422;28;19916;-59
2023/09/19 15:48:00;;;;;;;;;;;;;;;;;;5076304;28;19974;-59
2023/09/19 15:50:26;;;;;;;;;;;;;;;;;;5078363;28;19951;-59
2023/09/19 15:52:52;;;;;;;;;;;;;;;;;;5082291;28;19916;-59
2023/09/19 15:55:18;;;;;;;;;;;;;;;;;;5076945;28;19938;-58
2023/09/19 15:57:45;;;;;;;;;;;;;;;;;;5082770;28;20376;-58
2023/09/19 16:00:13;;;;;;;;;;;;;;;;;;5083309;28;19974;-59
2023/09/19 16:02:39;;;;;;;;;;;;;;;;;;5079611;28;19919;-58
2023/09/19 16:05:05;;;;;;;;;;;;;;;;;;5087612;28;19916;-58
2023/09/19 16:07:31;;;;;;;;;;;;;;;;;;5083067;28;20070;-59
2023/09/19 16:09:59;;;;;;;;;;;;;;;;;;5074444;28;19943;-61
2023/09/19 16:12:25;;;;;;;;;;;;;;;;;;5072507;28;20348;-59
2023/09/19 16:14:51;;;;;;;;;;;;;;;;;;5073759;28;20404;-60
2023/09/19 16:17:17;;;;;;;;;;;;;;;;;;5083003;28;19963;-60
2023/09/19 16:19:43;;;;;;;;;;;;;;;;;;5077461;28;19926;-59
2023/09/19 16:22:09;;;;;;;;;;;;;;;;;;5077967;28;19920;-59
2023/09/19 16:24:35;;;;;;;;;;;;;;;;;;5083035;28;20024;-60
2023/09/19 16:27:01;;;;;;;;;;;;;;;;;;5075102;28;19912;-60
2023/09/19 16:29:27;;;;;;;;;;;;;;;;;;5075950;28;20025;-60
2023/09/19 16:31:53;;;;;;;;;;;;;;;;;;5082501;28;19924;-61
2023/09/19 16:34:19;;;;;;;;;;;;;;;;;;5077895;28;19970;-60
2023/09/19 16:36:46;;;;;;;;;;;;;;;;;;5080859;28;19965;-60
2023/09/19 16:39:11;;;;;;;;;;;;;;;;;;5079927;28;20011;-59
2023/09/19 16:41:37;;;;;;;;;;;;;;;;;;5075091;28;20427;-60
2023/09/19 16:44:07;;;;;;;;;;;;;;;;;;5078905;28;20019;-59